createdAt,value
2023-03-13T00:01:36.149Z,2.80
2023-03-13T00:04:03.285Z,3.37
2023-03-13T00:06:34.218Z,2.97
2023-03-13T00:09:01.502Z,3.10
2023-03-13T00:11:28.707Z,3.77
2023-03-13T00:13:56.349Z,3.50
2023-03-13T00:16:23.861Z,3.17
2023-03-13T00:18:51.728Z,3.33
2023-03-13T00:21:19.551Z,3.13
2023-03-13T00:23:46.844Z,2.60
2023-03-13T00:26:14.948Z,3.07
2023-03-13T00:28:42.255Z,2.87
2023-03-13T00:31:10.800Z,2.90
2023-03-13T00:33:38.585Z,3.10
2023-03-13T00:36:06.834Z,2.77
2023-03-13T00:38:33.993Z,2.70
2023-03-13T00:41:01.859Z,2.97
2023-03-13T00:43:29.073Z,3.30
2023-03-13T00:45:56.251Z,2.90
2023-03-13T00:48:23.820Z,2.83
2023-03-13T00:50:50.991Z,2.97
2023-03-13T00:53:18.119Z,3.00
2023-03-13T00:56:11.661Z,3.33
2023-03-13T00:58:39.323Z,3.07
2023-03-13T01:01:25.626Z,2.53
2023-03-13T01:03:53.751Z,3.10
2023-03-13T01:06:22.104Z,2.47
2023-03-13T01:08:49.417Z,2.67
2023-03-13T01:11:17.832Z,2.60
2023-03-13T01:13:45.014Z,2.50
2023-03-13T01:16:16.144Z,2.33
2023-03-13T01:18:44.455Z,2.47
2023-03-13T01:21:11.754Z,2.47
2023-03-13T01:23:38.986Z,2.20
2023-03-13T01:26:06.678Z,2.37
2023-03-13T01:28:33.904Z,2.40
2023-03-13T01:31:01.201Z,3.40
2023-03-13T01:33:28.412Z,2.47
2023-03-13T01:36:01.690Z,3.40
2023-03-13T01:38:28.897Z,2.75
2023-03-13T01:40:56.007Z,2.42
2023-03-13T01:43:27.725Z,2.13
2023-03-13T01:45:57.925Z,3.50
2023-03-13T01:48:45.392Z,6.00
2023-03-13T01:51:14.051Z,4.50
2023-03-13T01:53:42.222Z,5.27
2023-03-13T01:56:09.768Z,3.73
2023-03-13T01:58:36.890Z,3.47
2023-03-13T02:01:04.036Z,3.37
2023-03-13T02:03:31.320Z,3.10
2023-03-13T02:05:58.450Z,3.17
2023-03-13T02:08:26.591Z,3.10
2023-03-13T02:11:02.859Z,4.00
2023-03-13T02:13:30.008Z,3.97
2023-03-13T02:15:57.212Z,4.77
2023-03-13T02:18:26.067Z,3.70
2023-03-13T02:20:53.580Z,3.07
2023-03-13T02:23:25.647Z,2.90
2023-03-13T02:25:53.649Z,3.03
2023-03-13T02:28:33.905Z,2.80
2023-03-13T02:31:01.233Z,3.13
2023-03-13T02:33:28.905Z,2.63
2023-03-13T02:35:56.084Z,2.63
2023-03-13T02:38:26.427Z,2.50
2023-03-13T02:40:53.744Z,2.60
2023-03-13T02:43:25.800Z,2.70
2023-03-13T02:46:02.223Z,2.53
2023-03-13T02:48:31.803Z,7.72
2023-03-13T02:50:59.093Z,3.97
2023-03-13T02:53:26.220Z,2.97
2023-03-13T02:55:53.381Z,3.20
2023-03-13T02:58:20.493Z,3.17
2023-03-13T03:00:47.612Z,3.27
2023-03-13T03:03:14.769Z,2.73
2023-03-13T03:05:42.062Z,3.30
2023-03-13T03:08:09.180Z,2.57
2023-03-13T03:10:37.211Z,3.03
2023-03-13T03:13:04.789Z,3.40
2023-03-13T03:15:31.939Z,3.10
2023-03-13T03:17:59.095Z,3.00
2023-03-13T03:20:26.230Z,3.13
2023-03-13T03:22:53.385Z,2.93
2023-03-13T03:25:23.260Z,3.03
2023-03-13T03:27:50.408Z,3.30
2023-03-13T03:30:17.655Z,3.30
2023-03-13T03:32:44.882Z,3.70
2023-03-13T03:35:12.067Z,3.07
2023-03-13T03:37:39.294Z,2.97
2023-03-13T03:40:06.876Z,3.53
2023-03-13T03:42:34.459Z,3.03
2023-03-13T03:45:01.597Z,2.90
2023-03-13T03:47:28.917Z,3.42
2023-03-13T03:49:56.110Z,3.33
2023-03-13T03:52:23.227Z,3.42
2023-03-13T03:54:50.388Z,3.40
2023-03-13T03:57:17.573Z,3.15
2023-03-13T03:59:44.689Z,2.97
2023-03-13T04:02:12.074Z,2.80
2023-03-13T04:04:39.256Z,3.15
2023-03-13T04:07:06.398Z,2.85
2023-03-13T04:09:33.573Z,2.80
2023-03-13T04:12:00.716Z,3.10
2023-03-13T04:14:27.890Z,3.28
2023-03-13T04:16:55.106Z,3.35
2023-03-13T04:19:22.310Z,3.03
2023-03-13T04:21:49.500Z,5.97
2023-03-13T04:24:16.677Z,4.93
2023-03-13T04:26:43.824Z,4.00
2023-03-13T04:29:10.948Z,3.73
2023-03-13T04:31:38.182Z,3.72
2023-03-13T04:34:05.328Z,3.80
2023-03-13T04:36:32.450Z,4.53
2023-03-13T04:38:59.597Z,4.20
2023-03-13T04:41:26.734Z,3.90
2023-03-13T04:43:53.872Z,3.88
2023-03-13T04:46:21.120Z,4.13
2023-03-13T04:48:48.321Z,3.80
2023-03-13T04:51:15.448Z,3.92
2023-03-13T04:53:43.023Z,4.65
2023-03-13T04:56:10.154Z,4.38
2023-03-13T04:58:37.279Z,4.38
2023-03-13T05:01:04.550Z,4.13
2023-03-13T05:03:31.724Z,4.18
2023-03-13T05:05:58.867Z,4.40
2023-03-13T05:08:26.022Z,4.00
2023-03-13T05:10:53.169Z,3.70
2023-03-13T05:13:20.280Z,3.25
2023-03-13T05:15:47.468Z,3.63
2023-03-13T05:18:14.647Z,3.40
2023-03-13T05:20:41.780Z,3.85
2023-03-13T05:23:08.945Z,3.47
2023-03-13T05:25:36.096Z,3.53
2023-03-13T05:28:03.227Z,3.60
2023-03-13T05:30:30.416Z,3.90
2023-03-13T05:32:57.726Z,4.60
2023-03-13T05:35:24.954Z,4.10
2023-03-13T05:37:52.246Z,4.43
2023-03-13T05:40:19.452Z,3.80
2023-03-13T05:42:46.594Z,3.70
2023-03-13T05:45:13.862Z,3.63
2023-03-13T05:47:41.685Z,4.00
2023-03-13T05:50:09.045Z,4.22
2023-03-13T05:52:36.295Z,3.83
2023-03-13T05:55:03.464Z,4.00
2023-03-13T05:57:30.614Z,4.90
2023-03-13T05:59:57.779Z,4.40
2023-03-13T06:02:24.920Z,4.13
2023-03-13T06:04:52.313Z,5.00
2023-03-13T06:07:19.579Z,4.90
2023-03-13T06:09:46.715Z,4.65
2023-03-13T06:12:13.993Z,5.05
2023-03-13T06:14:41.143Z,4.72
2023-03-13T06:17:08.281Z,5.55
2023-03-13T06:19:35.445Z,5.18
2023-03-13T06:22:02.599Z,5.55
2023-03-13T06:24:29.754Z,8.13
2023-03-13T06:26:57.104Z,14.27
2023-03-13T06:29:24.584Z,8.13
2023-03-13T06:31:52.104Z,5.68
2023-03-13T06:34:19.330Z,4.68
2023-03-13T06:36:46.494Z,4.97
2023-03-13T06:39:13.682Z,4.25
2023-03-13T06:41:40.900Z,4.13
2023-03-13T06:44:08.188Z,6.47
2023-03-13T06:46:35.372Z,8.05
2023-03-13T06:49:04.805Z,8.02
2023-03-13T06:51:32.131Z,11.50
2023-03-13T06:53:59.282Z,8.45
2023-03-13T06:56:26.517Z,6.53
2023-03-13T06:58:58.062Z,5.93
2023-03-13T07:01:26.670Z,5.82
2023-03-13T07:03:53.934Z,6.20
2023-03-13T07:06:21.163Z,6.35
2023-03-13T07:08:48.615Z,6.75
2023-03-13T07:11:15.936Z,6.72
2023-03-13T07:13:43.120Z,7.18
2023-03-13T07:16:11.064Z,7.85
2023-03-13T07:18:38.430Z,3.55
2023-03-13T07:21:05.728Z,4.15
2023-03-13T07:23:33.142Z,5.35
2023-03-13T07:26:01.068Z,5.10
2023-03-13T07:28:28.319Z,11.93
2023-03-13T07:30:55.520Z,13.98
2023-03-13T07:33:22.711Z,5.25
2023-03-13T07:35:52.718Z,5.57
2023-03-13T07:38:20.199Z,4.18
2023-03-13T07:40:56.995Z,5.05
2023-03-13T07:43:24.407Z,4.20
2023-03-13T07:45:55.338Z,4.70
2023-03-13T07:48:22.761Z,4.13
2023-03-13T07:50:49.979Z,6.68
2023-03-13T07:53:23.358Z,3.40
2023-03-13T07:56:06.382Z,4.38
2023-03-13T07:58:37.255Z,2.67
2023-03-13T08:01:11.252Z,4.32
2023-03-13T08:03:38.471Z,3.20
2023-03-13T08:06:09.567Z,2.70
2023-03-13T08:08:36.761Z,3.08
2023-03-13T08:11:13.779Z,3.63
2023-03-13T08:13:41.362Z,2.38
2023-03-13T08:16:10.149Z,2.92
2023-03-13T08:18:37.701Z,3.20
2023-03-13T08:21:05.666Z,2.75
2023-03-13T08:23:33.034Z,3.38
2023-03-13T08:26:04.430Z,3.33
2023-03-13T08:28:31.677Z,2.40
2023-03-13T08:30:58.895Z,2.60
2023-03-13T08:33:26.109Z,2.47
2023-03-13T08:35:53.265Z,2.38
2023-03-13T08:38:20.438Z,2.22
2023-03-13T08:40:47.673Z,3.03
2023-03-13T08:43:14.802Z,2.60
2023-03-13T08:45:41.937Z,2.85
2023-03-13T08:48:09.111Z,2.22
2023-03-13T08:50:36.317Z,2.50
2023-03-13T08:53:03.518Z,2.00
2023-03-13T08:55:30.696Z,2.15
2023-03-13T08:57:57.883Z,2.20
2023-03-13T09:00:25.203Z,1.92
2023-03-13T09:02:52.447Z,2.17
2023-03-13T09:05:19.595Z,2.13
2023-03-13T09:07:46.729Z,2.15
2023-03-13T09:10:13.900Z,1.85
2023-03-13T09:12:41.737Z,1.73
2023-03-13T09:15:09.362Z,1.67
2023-03-13T09:17:36.584Z,1.90
2023-03-13T09:20:04.658Z,1.85
2023-03-13T09:22:31.798Z,1.90
2023-03-13T09:24:58.966Z,1.75
2023-03-13T09:27:28.117Z,1.83
2023-03-13T09:29:55.389Z,1.90
2023-03-13T09:32:22.571Z,1.90
2023-03-13T09:34:49.720Z,1.80
2023-03-13T09:37:16.867Z,1.77
2023-03-13T09:39:44.049Z,1.60
2023-03-13T09:42:11.173Z,1.42
2023-03-13T09:44:40.634Z,1.67
2023-03-13T09:47:07.781Z,1.40
2023-03-13T09:49:35.957Z,1.90
2023-03-13T09:52:05.898Z,1.40
2023-03-13T09:54:35.386Z,1.63
2023-03-13T09:57:23.576Z,1.70
2023-03-13T10:00:01.611Z,1.38
2023-03-13T10:02:32.846Z,1.40
2023-03-13T10:05:02.827Z,1.40
2023-03-13T10:07:30.019Z,1.63
2023-03-13T10:09:57.171Z,1.35
2023-03-13T10:12:25.626Z,1.98
2023-03-13T10:14:55.877Z,1.88
2023-03-13T10:17:25.908Z,1.85
2023-03-13T10:19:56.322Z,1.77
2023-03-13T10:22:26.325Z,2.55
2023-03-13T10:24:56.446Z,1.27
2023-03-13T10:27:23.614Z,1.30
2023-03-13T10:29:50.860Z,1.77
2023-03-13T10:32:18.362Z,1.38
2023-03-13T10:34:51.501Z,2.08
2023-03-13T10:37:22.704Z,1.75
2023-03-13T10:39:49.860Z,2.38
2023-03-13T10:42:19.760Z,2.33
2023-03-13T10:44:46.896Z,2.03
2023-03-13T10:47:14.628Z,2.25
2023-03-13T10:49:48.590Z,1.60
2023-03-13T10:52:28.726Z,1.63
2023-03-13T10:54:57.940Z,0.90
2023-03-13T10:57:29.613Z,1.20
2023-03-13T10:59:56.799Z,1.40
2023-03-13T11:02:24.046Z,1.15
2023-03-13T11:04:53.973Z,1.50
2023-03-13T11:07:22.225Z,1.08
2023-03-13T11:09:59.325Z,1.63
2023-03-13T11:12:27.275Z,1.40
2023-03-13T11:14:57.802Z,2.60
2023-03-13T11:17:38.306Z,2.55
2023-03-13T11:20:09.545Z,1.40
2023-03-13T11:22:39.499Z,2.10
2023-03-13T11:25:13.550Z,1.75
2023-03-13T11:27:40.775Z,1.30
2023-03-13T11:30:08.078Z,1.33
2023-03-13T11:32:35.295Z,1.25
2023-03-13T11:35:03.008Z,1.00
2023-03-13T11:37:31.361Z,1.10
2023-03-13T11:39:58.570Z,1.20
2023-03-13T11:42:44.307Z,1.23
2023-03-13T11:45:30.405Z,1.15
2023-03-13T11:47:57.664Z,1.20
2023-03-13T11:50:27.672Z,1.20
2023-03-13T11:52:58.898Z,2.45
2023-03-13T11:55:26.614Z,3.00
2023-03-13T11:57:56.659Z,1.58
2023-03-13T12:00:30.508Z,0.98
2023-03-13T12:02:58.499Z,1.23
2023-03-13T12:05:25.710Z,1.20
2023-03-13T12:08:03.601Z,1.38
2023-03-13T12:10:31.953Z,1.30
2023-03-13T12:13:04.285Z,1.20
2023-03-13T12:15:50.140Z,1.00
2023-03-13T12:18:20.519Z,1.02
2023-03-13T12:20:53.734Z,0.98
2023-03-13T12:23:39.680Z,1.25
2023-03-13T12:26:07.436Z,1.27
2023-03-13T12:28:36.288Z,1.33
2023-03-13T12:31:15.721Z,0.85
2023-03-13T12:33:51.745Z,0.90
2023-03-13T12:36:23.788Z,1.17
2023-03-13T12:38:53.992Z,0.90
2023-03-13T12:41:24.741Z,1.13
2023-03-13T12:44:07.341Z,1.17
2023-03-13T12:46:36.289Z,1.00
2023-03-13T12:49:03.517Z,0.85
2023-03-13T12:51:49.650Z,1.30
2023-03-13T12:54:16.879Z,1.10
2023-03-13T12:57:07.499Z,1.27
2023-03-13T12:59:36.640Z,1.05
2023-03-13T13:02:03.834Z,1.05
2023-03-13T13:04:34.483Z,1.00
2023-03-13T13:07:02.668Z,1.10
2023-03-13T13:09:33.481Z,1.20
2023-03-13T13:12:04.435Z,1.30
2023-03-13T13:14:31.626Z,1.35
2023-03-13T13:17:00.683Z,1.50
2023-03-13T13:19:27.861Z,1.20
2023-03-13T13:22:13.592Z,1.48
2023-03-13T13:24:42.101Z,1.20
2023-03-13T13:27:28.419Z,1.33
2023-03-13T13:29:56.595Z,1.50
2023-03-13T13:32:30.975Z,1.10
2023-03-13T13:35:06.760Z,1.20
2023-03-13T13:37:34.075Z,1.42
2023-03-13T13:40:18.454Z,1.23
2023-03-13T13:42:51.686Z,1.30
2023-03-13T13:45:20.098Z,1.40
2023-03-13T13:47:50.497Z,1.00
2023-03-13T13:50:20.745Z,1.20
2023-03-13T13:52:48.286Z,1.10
2023-03-13T13:55:27.730Z,1.23
2023-03-13T13:58:01.326Z,1.00
2023-03-13T14:00:28.829Z,1.20
2023-03-13T14:02:56.529Z,1.02
2023-03-13T14:05:32.656Z,0.98
2023-03-13T14:08:01.523Z,1.13
2023-03-13T14:10:35.065Z,1.02
2023-03-13T14:13:02.473Z,1.50
2023-03-13T14:15:30.160Z,1.70
2023-03-13T14:18:00.580Z,1.60
2023-03-13T14:20:32.209Z,1.42
2023-03-13T14:23:01.606Z,1.35
2023-03-13T14:25:29.371Z,1.25
2023-03-13T14:27:56.655Z,1.95
2023-03-13T14:30:23.980Z,1.73
2023-03-13T14:32:51.245Z,1.60
2023-03-13T14:35:22.521Z,2.90
2023-03-13T14:37:50.810Z,1.80
2023-03-13T14:40:21.026Z,1.60
2023-03-13T14:42:49.193Z,1.50
2023-03-13T14:45:16.865Z,1.58
2023-03-13T14:47:44.040Z,1.67
2023-03-13T14:50:12.171Z,2.00
2023-03-13T14:52:41.733Z,1.70
2023-03-13T14:55:26.571Z,1.70
2023-03-13T14:57:57.424Z,2.15
2023-03-13T15:00:30.874Z,1.85
2023-03-13T15:03:33.399Z,2.10
2023-03-13T15:06:03.240Z,2.10
2023-03-13T15:08:30.413Z,1.92
2023-03-13T15:10:57.735Z,2.67
2023-03-13T15:13:35.885Z,1.60
2023-03-13T15:16:03.537Z,1.83
2023-03-13T15:18:31.699Z,1.55
2023-03-13T15:21:13.946Z,1.67
2023-03-13T15:23:41.277Z,2.72
2023-03-13T15:26:08.479Z,2.10
2023-03-13T15:28:35.830Z,1.63
2023-03-13T15:31:03.135Z,1.50
2023-03-13T15:33:30.377Z,2.10
2023-03-13T15:35:57.733Z,2.53
2023-03-13T15:38:25.805Z,2.00
2023-03-13T15:40:53.352Z,1.50
2023-03-13T15:43:20.930Z,2.05
2023-03-13T15:45:48.229Z,2.53
2023-03-13T15:48:16.268Z,2.00
2023-03-13T15:50:44.089Z,1.45
2023-03-13T15:53:14.611Z,1.35
2023-03-13T15:55:42.064Z,2.22
2023-03-13T15:58:11.038Z,4.22
2023-03-13T16:00:38.423Z,4.00
2023-03-13T16:03:05.634Z,3.38
2023-03-13T16:05:32.837Z,3.22
2023-03-13T16:08:00.006Z,5.32
2023-03-13T16:10:28.010Z,5.38
2023-03-13T16:12:55.311Z,17.35
2023-03-13T16:15:22.514Z,5.30
2023-03-13T16:17:49.687Z,4.32
2023-03-13T16:20:18.248Z,3.85
2023-03-13T16:22:45.508Z,5.20
2023-03-13T16:25:12.779Z,7.50
2023-03-13T16:27:41.863Z,4.53
2023-03-13T16:30:17.195Z,8.05
2023-03-13T16:32:44.699Z,4.03
2023-03-13T16:35:11.910Z,6.65
2023-03-13T16:37:39.065Z,6.13
2023-03-13T16:40:15.485Z,4.72
2023-03-13T16:42:42.747Z,6.32
2023-03-13T16:45:10.202Z,6.05
2023-03-13T16:47:37.397Z,7.65
2023-03-13T16:50:10.360Z,9.23
2023-03-13T16:52:37.589Z,3.75
2023-03-13T16:55:04.872Z,2.60
2023-03-13T16:57:32.072Z,4.65
2023-03-13T16:59:59.291Z,2.42
2023-03-13T17:02:28.357Z,4.45
2023-03-13T17:04:55.576Z,2.30
2023-03-13T17:07:23.994Z,9.73
2023-03-13T17:09:51.462Z,10.55
2023-03-13T17:12:19.070Z,4.15
2023-03-13T17:14:46.347Z,2.65
2023-03-13T17:17:14.164Z,3.90
2023-03-13T17:19:41.357Z,7.28
2023-03-13T17:22:08.699Z,5.90
2023-03-13T17:24:35.877Z,6.22
2023-03-13T17:27:03.054Z,3.97
2023-03-13T17:29:30.256Z,4.85
2023-03-13T17:31:57.433Z,3.58
2023-03-13T17:34:27.064Z,4.82
2023-03-13T17:36:54.269Z,5.07
2023-03-13T17:39:23.623Z,5.25
2023-03-13T17:41:50.969Z,3.38
2023-03-13T17:44:18.229Z,7.32
2023-03-13T17:46:46.594Z,5.68
2023-03-13T17:49:17.245Z,4.60
2023-03-13T17:51:46.284Z,7.03
2023-03-13T17:54:15.648Z,4.10
2023-03-13T17:56:43.162Z,3.70
2023-03-13T17:59:14.311Z,2.97
2023-03-13T18:01:42.141Z,3.03
2023-03-13T18:04:10.174Z,3.13
2023-03-13T18:06:40.466Z,2.50
2023-03-13T18:09:08.640Z,3.08
2023-03-13T18:11:36.578Z,5.13
2023-03-13T18:14:04.266Z,5.00
2023-03-13T18:16:50.520Z,5.03
2023-03-13T18:19:19.974Z,2.20
2023-03-13T18:21:49.433Z,6.20
2023-03-13T18:24:19.876Z,2.88
2023-03-13T18:26:47.306Z,2.25
2023-03-13T18:29:27.101Z,4.57
2023-03-13T18:31:58.771Z,3.42
2023-03-13T18:34:26.219Z,2.20
2023-03-13T18:36:53.406Z,1.80
2023-03-13T18:39:20.565Z,2.38
2023-03-13T18:41:48.096Z,2.33
2023-03-13T18:44:16.251Z,2.03
2023-03-13T18:46:43.816Z,3.28
2023-03-13T18:49:11.893Z,2.13
2023-03-13T18:51:39.034Z,1.80
2023-03-13T18:54:06.204Z,2.05
2023-03-13T18:56:33.809Z,1.48
2023-03-13T18:59:00.956Z,1.77
2023-03-13T19:01:29.189Z,2.15
2023-03-13T19:03:56.410Z,2.63
2023-03-13T19:06:30.617Z,2.95
2023-03-13T19:08:58.425Z,2.50
2023-03-13T19:11:29.231Z,3.97
2023-03-13T19:13:56.468Z,3.20
2023-03-13T19:16:28.399Z,5.85
2023-03-13T19:18:55.569Z,7.53
2023-03-13T19:21:23.618Z,6.68
2023-03-13T19:23:50.979Z,4.63
2023-03-13T19:26:27.501Z,4.05
2023-03-13T19:28:54.630Z,3.90
2023-03-13T19:31:22.035Z,5.28
2023-03-13T19:33:49.410Z,5.53
2023-03-13T19:36:17.348Z,8.90
2023-03-13T19:38:44.802Z,2.40
2023-03-13T19:41:12.386Z,2.10
2023-03-13T19:43:39.564Z,2.88
2023-03-13T19:46:23.241Z,3.10
2023-03-13T19:48:52.302Z,2.38
2023-03-13T19:51:19.461Z,2.90
2023-03-13T19:53:46.682Z,2.10
2023-03-13T19:56:17.549Z,2.08
2023-03-13T19:58:45.609Z,2.03
2023-03-13T20:01:17.510Z,2.30
2023-03-13T20:03:45.214Z,2.00
2023-03-13T20:06:30.311Z,2.00
2023-03-13T20:08:58.071Z,2.63
2023-03-13T20:11:25.745Z,2.00
2023-03-13T20:13:52.947Z,2.30
2023-03-13T20:16:20.214Z,2.50
2023-03-13T20:18:48.954Z,2.60
2023-03-13T20:21:16.542Z,2.03
2023-03-13T20:23:44.186Z,2.80
2023-03-13T20:26:11.786Z,4.97
2023-03-13T20:28:39.395Z,4.03
2023-03-13T20:31:06.744Z,3.35
2023-03-13T20:33:34.094Z,3.00
2023-03-13T20:36:01.899Z,2.40
2023-03-13T20:38:29.306Z,2.13
2023-03-13T20:40:56.944Z,2.78
2023-03-13T20:43:24.107Z,5.68
2023-03-13T20:45:51.271Z,8.23
2023-03-13T20:48:19.658Z,4.57
2023-03-13T20:50:46.850Z,8.95
2023-03-13T20:53:15.034Z,7.60
2023-03-13T20:55:42.360Z,17.35
2023-03-13T20:58:09.534Z,13.48
2023-03-13T21:00:36.692Z,28.40
2023-03-13T21:03:03.886Z,23.05
2023-03-13T21:05:31.087Z,12.93
2023-03-13T21:07:58.216Z,7.00
2023-03-13T21:10:25.342Z,6.05
2023-03-13T21:12:52.490Z,16.70
2023-03-13T21:15:19.773Z,10.55
2023-03-13T21:17:46.896Z,29.27
2023-03-13T21:20:14.232Z,20.65
2023-03-13T21:22:41.726Z,10.27
2023-03-13T21:25:09.494Z,5.93
2023-03-13T21:27:36.805Z,6.25
2023-03-13T21:30:07.729Z,10.52
2023-03-13T21:32:38.129Z,5.20
2023-03-13T21:35:05.758Z,3.53
2023-03-13T21:37:33.037Z,3.13
2023-03-13T21:40:00.252Z,3.60
2023-03-13T21:42:27.396Z,15.30
2023-03-13T21:44:54.531Z,45.90
2023-03-13T21:47:24.577Z,16.83
2023-03-13T21:49:52.277Z,15.48
2023-03-13T21:52:19.502Z,17.42
2023-03-13T21:54:46.675Z,6.40
2023-03-13T21:57:14.240Z,2.20
2023-03-13T21:59:41.620Z,7.60
2023-03-13T22:02:10.479Z,22.63
2023-03-13T22:04:37.605Z,15.02
2023-03-13T22:07:04.745Z,15.60
2023-03-13T22:09:32.935Z,26.55
2023-03-13T22:12:00.193Z,17.63
2023-03-13T22:14:28.047Z,12.77
2023-03-13T22:16:55.353Z,4.50
2023-03-13T22:19:22.483Z,2.78
2023-03-13T22:21:49.680Z,2.08
2023-03-13T22:24:17.006Z,2.60
2023-03-13T22:26:44.158Z,39.33
2023-03-13T22:29:11.318Z,20.52
2023-03-13T22:31:38.478Z,12.82
2023-03-13T22:34:05.597Z,6.80
2023-03-13T22:36:33.023Z,9.68
2023-03-13T22:39:00.201Z,17.50
2023-03-13T22:41:27.331Z,9.88
2023-03-13T22:43:54.445Z,6.45
2023-03-13T22:46:21.679Z,2.00
2023-03-13T22:48:48.802Z,2.97
2023-03-13T22:51:16.739Z,3.22
2023-03-13T22:53:44.078Z,3.38
2023-03-13T22:56:11.910Z,3.17
2023-03-13T22:58:39.638Z,4.47
2023-03-13T23:01:07.676Z,2.90
2023-03-13T23:03:34.914Z,1.80
2023-03-13T23:06:02.229Z,2.08
2023-03-13T23:08:29.402Z,2.20
2023-03-13T23:10:56.550Z,1.83
2023-03-13T23:13:23.682Z,1.98
2023-03-13T23:15:57.973Z,2.22
2023-03-13T23:18:25.507Z,2.15
2023-03-13T23:20:52.818Z,2.30
2023-03-13T23:23:19.979Z,1.77
2023-03-13T23:25:47.141Z,1.90
2023-03-13T23:28:14.327Z,2.70
2023-03-13T23:30:41.472Z,2.15
2023-03-13T23:33:08.619Z,2.13
2023-03-13T23:35:37.542Z,2.53
2023-03-13T23:38:04.755Z,2.60
2023-03-13T23:40:32.621Z,2.22
2023-03-13T23:42:59.826Z,2.30
2023-03-13T23:45:26.945Z,2.00
2023-03-13T23:47:54.209Z,2.03
2023-03-13T23:50:21.432Z,2.05
2023-03-13T23:52:48.543Z,2.00
2023-03-13T23:55:15.795Z,2.03
2023-03-13T23:57:42.971Z,1.85
